Time;durP1;ratioP1;P1;durP2;ratioP2;P2;SDS_P1;SDS_P2;PMS_P1;PMS_P2;Temp;Humidity;BMP_temperature;BMP_pressure;BME280_temperature;BME280_humidity;BME280_pressure;Samples;Min_cycle;Max_cycle;Signal;HPM_P1;HPM_P2
2023/12/05 00:01:37;;;;;;;;;3.00;2.00;;;;;;;;5075556;28;9992;-84
2023/12/05 00:04:06;;;;;;;;;0.00;0.00;;;;;;;;5064846;28;10047;-85
2023/12/05 00:06:33;;;;;;;;;1.00;1.00;;;;;;;;5077378;28;9920;-84
2023/12/05 00:09:00;;;;;;;;;1.00;1.00;;;;;;;;5066767;28;9926;-84
2023/12/05 00:11:27;;;;;;;;;0.75;0.75;;;;;;;;5068615;28;10509;-83
2023/12/05 00:13:55;;;;;;;;;1.00;1.00;;;;;;;;5063582;28;9932;-83
2023/12/05 00:16:22;;;;;;;;;2.00;1.00;;;;;;;;5072259;28;10082;-82
2023/12/05 00:18:51;;;;;;;;;0.25;0.25;;;;;;;;5062630;28;10000;-82
2023/12/05 00:21:18;;;;;;;;;3.00;1.00;;;;;;;;5068553;28;10256;-84
2023/12/05 00:23:46;;;;;;;;;1.00;1.00;;;;;;;;5071262;28;10344;-84
2023/12/05 00:26:13;;;;;;;;;1.00;1.00;;;;;;;;5051884;28;10082;-84
2023/12/05 00:28:43;;;;;;;;;1.00;1.00;;;;;;;;5057206;28;10197;-83
2023/12/05 00:31:11;;;;;;;;;0.00;0.00;;;;;;;;5070030;28;9956;-84
2023/12/05 00:33:39;;;;;;;;;1.00;1.00;;;;;;;;5070875;28;10169;-83
2023/12/05 00:36:10;;;;;;;;;0.50;0.50;;;;;;;;5071192;28;10101;-84
2023/12/05 00:38:38;;;;;;;;;1.25;1.00;;;;;;;;5063536;28;10249;-82
2023/12/05 00:41:09;;;;;;;;;0.25;0.25;;;;;;;;5063232;28;10220;-83
2023/12/05 00:43:38;;;;;;;;;0.75;0.75;;;;;;;;5065702;28;10146;-83
2023/12/05 00:46:06;;;;;;;;;0.50;0.50;;;;;;;;5064364;28;10080;-83
2023/12/05 00:48:33;;;;;;;;;0.25;0.25;;;;;;;;5061855;28;10283;-83
2023/12/05 00:51:00;;;;;;;;;1.25;1.25;;;;;;;;5063755;28;10109;-82
2023/12/05 00:53:29;;;;;;;;;0.00;0.00;;;;;;;;5070453;28;10098;-83
2023/12/05 00:55:56;;;;;;;;;2.00;1.00;;;;;;;;5067812;28;10025;-83
2023/12/05 00:58:23;;;;;;;;;0.75;0.75;;;;;;;;5065419;28;10158;-83
2023/12/05 01:00:51;;;;;;;;;3.00;1.00;;;;;;;;5069570;28;10113;-83
2023/12/05 01:03:18;;;;;;;;;3.50;1.00;;;;;;;;5067475;28;10242;-85
2023/12/05 01:05:45;;;;;;;;;1.00;1.00;;;;;;;;5058287;28;10192;-83
2023/12/05 01:08:14;;;;;;;;;0.00;0.00;;;;;;;;5057917;28;10089;-83
2023/12/05 01:10:43;;;;;;;;;1.00;1.00;;;;;;;;5056623;28;10233;-83
2023/12/05 01:13:11;;;;;;;;;0.50;0.50;;;;;;;;5066781;28;10147;-83
2023/12/05 01:15:38;;;;;;;;;1.00;1.00;;;;;;;;5059341;28;10081;-83
2023/12/05 01:18:05;;;;;;;;;1.75;0.00;;;;;;;;5068489;28;10209;-82
2023/12/05 01:20:33;;;;;;;;;1.00;1.00;;;;;;;;5059585;28;10183;-83
2023/12/05 01:23:03;;;;;;;;;0.50;0.50;;;;;;;;5069129;28;10274;-83
2023/12/05 01:25:30;;;;;;;;;0.00;0.00;;;;;;;;5066970;28;10271;-83
2023/12/05 01:27:58;;;;;;;;;0.00;0.00;;;;;;;;5063554;28;10255;-83
2023/12/05 01:30:26;;;;;;;;;0.00;0.00;;;;;;;;5065211;28;10087;-82
2023/12/05 01:32:53;;;;;;;;;0.00;0.00;;;;;;;;5066209;28;10275;-83
2023/12/05 01:35:21;;;;;;;;;0.00;0.00;;;;;;;;5069831;28;10379;-84
2023/12/05 01:37:49;;;;;;;;;2.00;0.00;;;;;;;;5059393;28;10285;-83
2023/12/05 01:40:16;;;;;;;;;0.00;0.00;;;;;;;;5069100;28;10307;-84
2023/12/05 01:42:44;;;;;;;;;0.00;0.00;;;;;;;;5070129;28;10240;-83
2023/12/05 01:45:13;;;;;;;;;0.00;0.00;;;;;;;;5066169;28;10253;-84
2023/12/05 01:47:41;;;;;;;;;0.00;0.00;;;;;;;;5067101;28;10241;-85
2023/12/05 01:50:11;;;;;;;;;0.50;0.50;;;;;;;;5062971;28;10322;-82
2023/12/05 01:52:41;;;;;;;;;0.50;0.50;;;;;;;;5072232;28;10279;-82
2023/12/05 01:55:09;;;;;;;;;0.00;0.00;;;;;;;;5077060;28;10220;-82
2023/12/05 01:57:37;;;;;;;;;2.00;0.25;;;;;;;;5066377;28;10357;-83
2023/12/05 02:00:06;;;;;;;;;0.00;0.00;;;;;;;;5067723;28;10304;-83
2023/12/05 02:02:35;;;;;;;;;0.00;0.00;;;;;;;;5064872;28;10269;-84
2023/12/05 02:05:03;;;;;;;;;0.00;0.00;;;;;;;;5051774;28;10235;-84
2023/12/05 02:07:31;;;;;;;;;0.00;0.00;;;;;;;;5060633;28;10251;-84
2023/12/05 02:10:02;;;;;;;;;0.00;0.00;;;;;;;;5073674;28;10280;-84
2023/12/05 02:12:32;;;;;;;;;0.00;0.00;;;;;;;;5072324;28;10375;-84
2023/12/05 02:15:00;;;;;;;;;0.00;0.00;;;;;;;;5045122;28;10367;-84
2023/12/05 02:17:32;;;;;;;;;0.75;0.75;;;;;;;;5062865;28;10234;-83
2023/12/05 02:20:08;;;;;;;;;0.00;0.00;;;;;;;;5067948;28;11176;-84
2023/12/05 02:23:19;;;;;;;;;0.00;0.00;;;;;;;;5064171;28;10440;-84
2023/12/05 02:25:53;;;;;;;;;0.00;0.00;;;;;;;;5057636;28;10382;-85
2023/12/05 02:28:23;;;;;;;;;0.00;0.00;;;;;;;;5061739;28;10402;-84
2023/12/05 02:30:50;;;;;;;;;0.00;0.00;;;;;;;;5064930;28;10378;-85
2023/12/05 02:33:18;;;;;;;;;0.00;0.00;;;;;;;;5054971;28;10583;-84
2023/12/05 02:35:46;;;;;;;;;0.00;0.00;;;;;;;;5065709;28;10527;-83
2023/12/05 02:38:21;;;;;;;;;0.00;0.00;;;;;;;;5068515;28;10550;-83
2023/12/05 02:40:58;;;;;;;;;0.00;0.00;;;;;;;;5068419;28;10434;-83
2023/12/05 02:43:32;;;;;;;;;0.00;0.00;;;;;;;;5060611;28;10452;-84
2023/12/05 02:46:00;;;;;;;;;0.00;0.00;;;;;;;;5053064;28;10446;-83
2023/12/05 02:48:36;;;;;;;;;0.00;0.00;;;;;;;;5055268;28;10530;-84
2023/12/05 02:51:06;;;;;;;;;0.00;0.00;;;;;;;;5057830;28;10588;-83
2023/12/05 02:53:33;;;;;;;;;0.00;0.00;;;;;;;;5059659;28;11287;-82
2023/12/05 02:56:00;;;;;;;;;0.00;0.00;;;;;;;;5062277;28;10532;-83
2023/12/05 02:58:29;;;;;;;;;0.00;0.00;;;;;;;;5063136;28;10454;-84
2023/12/05 03:00:57;;;;;;;;;1.00;0.00;;;;;;;;5066342;28;10497;-82
2023/12/05 03:03:24;;;;;;;;;0.75;0.00;;;;;;;;5069001;28;10629;-83
2023/12/05 03:05:51;;;;;;;;;0.00;0.00;;;;;;;;5057306;28;10680;-82
2023/12/05 03:08:20;;;;;;;;;0.00;0.00;;;;;;;;5057326;28;10763;-82
2023/12/05 03:10:49;;;;;;;;;0.00;0.00;;;;;;;;5062352;28;10650;-82
2023/12/05 03:13:17;;;;;;;;;0.00;0.00;;;;;;;;5056656;28;10523;-83
2023/12/05 03:15:45;;;;;;;;;0.00;0.00;;;;;;;;5064606;28;10600;-83
2023/12/05 03:18:13;;;;;;;;;0.00;0.00;;;;;;;;5067146;28;10624;-80
2023/12/05 03:20:42;;;;;;;;;0.00;0.00;;;;;;;;5071689;28;11506;-84
2023/12/05 03:23:09;;;;;;;;;0.00;0.00;;;;;;;;5069796;28;10665;-83
2023/12/05 03:25:38;;;;;;;;;0.00;0.00;;;;;;;;5064770;28;10663;-83
2023/12/05 03:28:06;;;;;;;;;0.00;0.00;;;;;;;;5065748;28;10483;-84
2023/12/05 03:30:33;;;;;;;;;0.00;0.00;;;;;;;;5067213;28;10590;-84
2023/12/05 03:33:02;;;;;;;;;0.00;0.00;;;;;;;;5065805;28;10645;-84
2023/12/05 03:35:33;;;;;;;;;0.00;0.00;;;;;;;;5075115;28;10733;-84
2023/12/05 03:38:00;;;;;;;;;0.00;0.00;;;;;;;;5071265;28;10836;-83
2023/12/05 03:40:27;;;;;;;;;0.00;0.00;;;;;;;;5073988;28;10717;-84
2023/12/05 03:42:55;;;;;;;;;0.00;0.00;;;;;;;;5070495;28;10673;-83
2023/12/05 03:45:26;;;;;;;;;0.00;0.00;;;;;;;;5069276;28;10741;-83
2023/12/05 03:47:53;;;;;;;;;2.50;0.00;;;;;;;;5068119;28;10765;-82
2023/12/05 03:50:24;;;;;;;;;0.00;0.00;;;;;;;;5085198;28;10760;-84
2023/12/05 03:52:53;;;;;;;;;0.00;0.00;;;;;;;;5071614;28;10925;-83
2023/12/05 03:55:23;;;;;;;;;0.00;0.00;;;;;;;;5071726;28;10739;-84
2023/12/05 03:57:50;;;;;;;;;0.00;0.00;;;;;;;;5074068;28;10663;-84
2023/12/05 04:00:19;;;;;;;;;0.00;0.00;;;;;;;;5073489;28;10751;-84
2023/12/05 04:02:46;;;;;;;;;0.75;0.75;;;;;;;;5039564;28;10935;-83
2023/12/05 04:05:13;;;;;;;;;0.50;0.50;;;;;;;;5054695;28;10830;-83
2023/12/05 04:07:42;;;;;;;;;2.00;2.00;;;;;;;;5061379;28;11556;-83
2023/12/05 04:10:10;;;;;;;;;1.00;1.00;;;;;;;;5077254;28;10894;-84
2023/12/05 04:12:39;;;;;;;;;1.00;1.00;;;;;;;;5061934;28;10728;-83
2023/12/05 04:15:08;;;;;;;;;1.50;1.00;;;;;;;;5071710;28;10825;-84
2023/12/05 04:17:35;;;;;;;;;2.00;2.00;;;;;;;;5070942;28;10823;-80
2023/12/05 04:20:03;;;;;;;;;2.00;2.00;;;;;;;;5060601;28;10875;-79
2023/12/05 04:22:31;;;;;;;;;2.00;2.00;;;;;;;;5075027;28;10917;-84
2023/12/05 04:25:03;;;;;;;;;1.00;1.00;;;;;;;;5070982;28;10931;-84
2023/12/05 04:27:30;;;;;;;;;2.00;2.00;;;;;;;;5064629;28;10814;-84
2023/12/05 04:29:58;;;;;;;;;2.00;2.00;;;;;;;;5070912;28;10865;-83
2023/12/05 04:32:24;;;;;;;;;3.00;3.00;;;;;;;;5069229;28;10859;-83
2023/12/05 04:34:51;;;;;;;;;3.00;3.00;;;;;;;;5070898;28;10926;-82
2023/12/05 04:37:18;;;;;;;;;6.00;3.25;;;;;;;;5068261;28;10708;-83
2023/12/05 04:39:46;;;;;;;;;2.00;2.00;;;;;;;;5070664;28;10826;-84
2023/12/05 04:42:14;;;;;;;;;3.25;3.25;;;;;;;;5070219;28;10873;-82
2023/12/05 04:44:42;;;;;;;;;1.25;1.25;;;;;;;;5066407;28;10769;-83
2023/12/05 04:47:10;;;;;;;;;2.25;2.25;;;;;;;;5066428;28;10658;-82
2023/12/05 04:49:46;;;;;;;;;5.75;3.50;;;;;;;;5061710;28;10765;-83
2023/12/05 04:52:13;;;;;;;;;4.50;4.50;;;;;;;;5063166;28;10964;-84
2023/12/05 04:54:48;;;;;;;;;3.00;3.00;;;;;;;;5065063;28;10924;-83
2023/12/05 04:57:17;;;;;;;;;3.00;3.00;;;;;;;;5061206;28;10894;-82
2023/12/05 04:59:44;;;;;;;;;3.75;2.00;;;;;;;;5066260;28;10900;-82
2023/12/05 05:02:14;;;;;;;;;5.00;2.75;;;;;;;;5068929;28;10836;-84
2023/12/05 05:04:45;;;;;;;;;5.50;3.00;;;;;;;;5069416;28;10790;-84
2023/12/05 05:07:13;;;;;;;;;3.00;3.00;;;;;;;;5072910;28;10831;-87
2023/12/05 05:09:41;;;;;;;;;3.25;3.25;;;;;;;;5041560;28;10813;-84
2023/12/05 05:12:10;;;;;;;;;3.75;3.75;;;;;;;;5051106;28;10790;-84
2023/12/05 05:14:39;;;;;;;;;4.75;3.00;;;;;;;;5038737;28;10763;-85
2023/12/05 05:17:07;;;;;;;;;5.25;3.00;;;;;;;;5056378;28;10802;-83
2023/12/05 05:19:34;;;;;;;;;1.50;1.50;;;;;;;;5058380;28;10989;-82
2023/12/05 05:22:02;;;;;;;;;5.50;4.50;;;;;;;;5065454;28;10771;-83
2023/12/05 05:24:29;;;;;;;;;4.00;4.00;;;;;;;;5063519;28;10964;-83
2023/12/05 05:27:02;;;;;;;;;6.25;4.00;;;;;;;;5067688;28;10958;-83
2023/12/05 05:29:35;;;;;;;;;6.00;3.50;;;;;;;;5072693;28;10826;-83
2023/12/05 05:32:05;;;;;;;;;6.75;6.75;;;;;;;;5069351;28;10713;-83
2023/12/05 05:34:32;;;;;;;;;4.00;3.00;;;;;;;;5060426;28;10835;-84
2023/12/05 05:36:59;;;;;;;;;9.25;6.00;;;;;;;;5074555;28;10829;-85
2023/12/05 05:39:30;;;;;;;;;4.00;4.00;;;;;;;;5073715;28;10907;-81
2023/12/05 05:41:57;;;;;;;;;6.00;4.00;;;;;;;;5080695;28;10805;-86
2023/12/05 05:44:24;;;;;;;;;5.50;5.50;;;;;;;;5068482;28;10849;-87
2023/12/05 05:46:51;;;;;;;;;7.50;5.25;;;;;;;;5058527;28;11598;-85
2023/12/05 05:49:22;;;;;;;;;5.50;4.00;;;;;;;;5073706;28;10690;-84
2023/12/05 05:51:49;;;;;;;;;3.50;3.50;;;;;;;;5066263;28;10751;-87
2023/12/05 05:54:22;;;;;;;;;7.50;4.75;;;;;;;;5070124;28;10691;-84
2023/12/05 05:56:55;;;;;;;;;3.00;3.00;;;;;;;;5059781;28;10814;-84
2023/12/05 05:59:42;;;;;;;;;2.75;2.75;;;;;;;;5067342;28;10562;-84
2023/12/05 06:02:12;;;;;;;;;3.00;2.25;;;;;;;;5067652;28;10567;-86
2023/12/05 06:04:48;;;;;;;;;2.75;2.75;;;;;;;;5064716;28;10622;-85
2023/12/05 06:07:21;;;;;;;;;3.00;3.00;;;;;;;;5065417;28;10696;-86
2023/12/05 06:09:51;;;;;;;;;4.75;3.50;;;;;;;;5066794;28;10587;-78
2023/12/05 06:12:19;;;;;;;;;4.50;2.75;;;;;;;;5066720;28;10773;-76
2023/12/05 06:14:51;;;;;;;;;2.00;2.00;;;;;;;;5063970;28;10772;-78
2023/12/05 06:17:20;;;;;;;;;3.00;3.00;;;;;;;;5065250;28;10546;-84
2023/12/05 06:19:48;;;;;;;;;2.00;2.00;;;;;;;;5057111;28;10596;-79
2023/12/05 06:22:16;;;;;;;;;2.75;2.75;;;;;;;;5060964;28;10724;-75
2023/12/05 06:24:43;;;;;;;;;2.00;2.00;;;;;;;;5069298;28;10544;-82
2023/12/05 06:27:10;;;;;;;;;1.00;1.00;;;;;;;;5080128;28;10593;-81
2023/12/05 06:29:38;;;;;;;;;1.50;1.00;;;;;;;;5068941;28;10455;-85
2023/12/05 06:32:06;;;;;;;;;1.00;1.00;;;;;;;;5067793;28;10504;-84
2023/12/05 06:34:33;;;;;;;;;2.25;2.25;;;;;;;;5081785;28;10538;-85
2023/12/05 06:37:01;;;;;;;;;2.50;2.50;;;;;;;;5074578;28;10576;-79
2023/12/05 06:39:28;;;;;;;;;2.00;2.00;;;;;;;;5072388;28;10531;-83
2023/12/05 06:41:59;;;;;;;;;2.00;2.00;;;;;;;;5084202;28;10737;-82
2023/12/05 06:44:26;;;;;;;;;2.75;2.75;;;;;;;;5072827;28;10692;-83
2023/12/05 06:46:53;;;;;;;;;2.25;2.25;;;;;;;;5071466;28;10602;-80
2023/12/05 06:49:22;;;;;;;;;2.00;2.00;;;;;;;;5072964;28;10618;-82
2023/12/05 06:51:55;;;;;;;;;2.00;1.00;;;;;;;;5072011;28;10546;-84
2023/12/05 06:54:24;;;;;;;;;7.25;2.50;;;;;;;;5072716;28;11357;-81
2023/12/05 06:56:51;;;;;;;;;2.00;2.00;;;;;;;;5069547;28;10666;-86
2023/12/05 06:59:19;;;;;;;;;3.50;2.50;;;;;;;;5081112;28;10508;-77
2023/12/05 07:01:46;;;;;;;;;2.00;2.00;;;;;;;;5088355;28;10500;-80
2023/12/05 07:04:14;;;;;;;;;2.75;2.75;;;;;;;;5072097;28;10629;-81
2023/12/05 07:06:41;;;;;;;;;3.00;3.00;;;;;;;;5067074;28;10601;-82
2023/12/05 07:09:08;;;;;;;;;4.00;4.00;;;;;;;;5072730;28;10675;-85
2023/12/05 07:11:37;;;;;;;;;3.00;3.00;;;;;;;;5073890;28;10718;-80
2023/12/05 07:14:04;;;;;;;;;4.00;2.25;;;;;;;;5073743;28;10714;-86
2023/12/05 07:16:31;;;;;;;;;4.00;4.00;;;;;;;;5068539;28;10688;-83
2023/12/05 07:18:58;;;;;;;;;1.00;1.00;;;;;;;;5068436;28;10662;-84
2023/12/05 07:21:26;;;;;;;;;6.00;3.25;;;;;;;;5075521;28;10697;-82
2023/12/05 07:23:53;;;;;;;;;5.25;3.00;;;;;;;;5074828;28;10609;-80
2023/12/05 07:26:21;;;;;;;;;2.00;2.00;;;;;;;;5075435;28;10628;-85
2023/12/05 07:28:49;;;;;;;;;3.00;3.00;;;;;;;;5074335;28;10683;-75
2023/12/05 07:31:18;;;;;;;;;5.25;3.75;;;;;;;;5063137;28;10645;-76
2023/12/05 07:33:45;;;;;;;;;3.00;3.00;;;;;;;;5075978;28;10813;-79
2023/12/05 07:36:13;;;;;;;;;3.00;3.00;;;;;;;;5072999;28;10675;-80
2023/12/05 07:38:43;;;;;;;;;6.75;4.00;;;;;;;;5070380;28;10771;-74
2023/12/05 07:41:18;;;;;;;;;3.00;3.00;;;;;;;;5071266;28;10602;-75
2023/12/05 07:43:49;;;;;;;;;2.00;2.00;;;;;;;;5070535;28;10821;-77
2023/12/05 07:46:18;;;;;;;;;7.75;3.75;;;;;;;;5068617;28;10783;-78
2023/12/05 07:48:46;;;;;;;;;7.00;4.00;;;;;;;;5070779;28;10607;-80
2023/12/05 07:51:18;;;;;;;;;3.75;3.75;;;;;;;;5069036;28;10771;-74
2023/12/05 07:53:46;;;;;;;;;4.00;4.00;;;;;;;;5069707;28;10696;-77
2023/12/05 07:56:13;;;;;;;;;5.00;5.00;;;;;;;;5068998;28;10839;-74
2023/12/05 07:58:42;;;;;;;;;4.00;4.00;;;;;;;;5069558;28;10967;-71
2023/12/05 08:01:10;;;;;;;;;9.00;7.00;;;;;;;;5066059;28;10684;-75
2023/12/05 08:03:39;;;;;;;;;5.75;5.75;;;;;;;;5079662;28;10920;-72
2023/12/05 08:06:07;;;;;;;;;6.00;6.00;;;;;;;;5060251;28;10888;-73
2023/12/05 08:08:35;;;;;;;;;3.00;3.00;;;;;;;;5067163;28;10806;-74
2023/12/05 08:11:02;;;;;;;;;4.50;3.00;;;;;;;;5067458;28;10902;-72
2023/12/05 08:13:30;;;;;;;;;3.75;2.00;;;;;;;;5059088;28;10760;-74
2023/12/05 08:15:57;;;;;;;;;3.75;3.75;;;;;;;;5067613;28;10652;-77
2023/12/05 08:18:24;;;;;;;;;3.75;3.00;;;;;;;;5065480;28;10766;-75
2023/12/05 08:20:53;;;;;;;;;2.00;2.00;;;;;;;;5069733;28;10699;-78
2023/12/05 08:23:20;;;;;;;;;5.25;3.00;;;;;;;;5068416;28;10840;-77
2023/12/05 08:25:47;;;;;;;;;5.00;3.00;;;;;;;;5069407;28;10686;-81
2023/12/05 08:28:15;;;;;;;;;6.50;4.00;;;;;;;;5069452;28;10775;-80
2023/12/05 08:30:42;;;;;;;;;4.00;4.00;;;;;;;;5068800;28;10878;-79
2023/12/05 08:33:10;;;;;;;;;3.75;3.75;;;;;;;;5068493;28;10910;-77
2023/12/05 08:35:37;;;;;;;;;3.75;3.75;;;;;;;;5068651;28;10841;-77
2023/12/05 08:38:06;;;;;;;;;3.75;3.75;;;;;;;;5069057;28;10771;-76
2023/12/05 08:40:33;;;;;;;;;5.25;5.25;;;;;;;;5068418;28;10741;-77
2023/12/05 08:43:00;;;;;;;;;4.00;4.00;;;;;;;;5081641;28;10684;-79
2023/12/05 08:45:28;;;;;;;;;2.25;2.25;;;;;;;;5067990;28;10680;-82
2023/12/05 08:47:56;;;;;;;;;4.00;4.00;;;;;;;;5069096;28;10718;-78
2023/12/05 08:50:23;;;;;;;;;4.50;2.50;;;;;;;;5069457;28;10775;-76
2023/12/05 08:52:50;;;;;;;;;3.75;3.75;;;;;;;;5069268;28;10754;-74
2023/12/05 08:55:19;;;;;;;;;4.25;3.00;;;;;;;;5074144;28;10754;-81
2023/12/05 08:57:46;;;;;;;;;7.00;4.00;;;;;;;;5071971;28;10753;-76
2023/12/05 09:00:16;;;;;;;;;2.00;2.00;;;;;;;;5068455;28;10857;-77
2023/12/05 09:02:46;;;;;;;;;4.00;4.00;;;;;;;;5069077;28;10765;-79
2023/12/05 09:05:13;;;;;;;;;7.25;7.25;;;;;;;;5072717;28;10734;-80
2023/12/05 09:07:40;;;;;;;;;7.00;4.50;;;;;;;;5069896;28;10852;-77
2023/12/05 09:10:08;;;;;;;;;4.50;4.50;;;;;;;;5066202;28;10852;-76
2023/12/05 09:12:37;;;;;;;;;8.00;5.00;;;;;;;;5071119;28;10622;-79
2023/12/05 09:15:05;;;;;;;;;8.00;7.00;;;;;;;;5068266;28;10743;-78
2023/12/05 09:17:32;;;;;;;;;4.25;4.25;;;;;;;;5064922;28;10701;-81
2023/12/05 09:19:59;;;;;;;;;6.75;5.00;;;;;;;;5068878;28;10690;-75
2023/12/05 09:22:27;;;;;;;;;7.00;7.00;;;;;;;;5070701;28;10716;-74
2023/12/05 09:24:55;;;;;;;;;6.50;5.75;;;;;;;;5067953;28;10679;-75
2023/12/05 09:27:22;;;;;;;;;5.50;4.00;;;;;;;;5059044;28;10760;-76
2023/12/05 09:29:53;;;;;;;;;6.25;6.25;;;;;;;;5067229;28;10608;-74
2023/12/05 09:32:20;;;;;;;;;6.00;6.00;;;;;;;;5073591;28;10550;-78
2023/12/05 09:34:47;;;;;;;;;6.25;6.25;;;;;;;;5064653;28;10627;-80
2023/12/05 09:37:14;;;;;;;;;7.75;6.25;;;;;;;;5055590;28;10621;-78
2023/12/05 09:39:42;;;;;;;;;3.50;3.50;;;;;;;;5073312;28;10637;-77
2023/12/05 09:42:11;;;;;;;;;3.25;3.25;;;;;;;;5060737;28;10695;-76
2023/12/05 09:44:39;;;;;;;;;4.75;4.75;;;;;;;;5076393;28;10528;-75
2023/12/05 09:47:11;;;;;;;;;5.00;5.00;;;;;;;;5058010;28;10605;-72
2023/12/05 09:49:40;;;;;;;;;4.00;4.00;;;;;;;;5056614;28;10701;-72
2023/12/05 09:52:08;;;;;;;;;6.25;4.75;;;;;;;;5067458;28;10539;-76
2023/12/05 09:54:37;;;;;;;;;3.50;3.50;;;;;;;;5067628;28;10674;-75
2023/12/05 09:57:05;;;;;;;;;4.00;4.00;;;;;;;;5065999;28;10451;-74
2023/12/05 09:59:32;;;;;;;;;3.00;3.00;;;;;;;;5067345;28;10598;-73
2023/12/05 10:02:02;;;;;;;;;4.75;2.00;;;;;;;;5068033;28;10446;-77
2023/12/05 10:04:41;;;;;;;;;2.00;2.00;;;;;;;;5066941;28;10410;-75
2023/12/05 10:07:12;;;;;;;;;1.25;1.25;;;;;;;;5061343;28;10381;-77
2023/12/05 10:09:40;;;;;;;;;2.50;2.50;;;;;;;;5064805;28;10288;-83
2023/12/05 10:12:08;;;;;;;;;3.25;3.25;;;;;;;;5067541;28;10470;-78
2023/12/05 10:14:35;;;;;;;;;2.50;2.50;;;;;;;;5065071;28;10416;-72
2023/12/05 10:17:03;;;;;;;;;2.00;2.00;;;;;;;;5059863;28;10430;-75
2023/12/05 10:19:31;;;;;;;;;2.00;2.00;;;;;;;;5066992;28;10496;-73
2023/12/05 10:22:00;;;;;;;;;2.00;2.00;;;;;;;;5066950;28;10317;-74
2023/12/05 10:24:40;;;;;;;;;1.50;1.50;;;;;;;;5055560;28;10426;-77
2023/12/05 10:27:08;;;;;;;;;1.25;1.25;;;;;;;;5067035;28;10426;-72
2023/12/05 10:29:40;;;;;;;;;1.75;1.75;;;;;;;;5067403;28;10287;-74
2023/12/05 10:32:09;;;;;;;;;2.00;2.00;;;;;;;;5066648;28;10320;-75
2023/12/05 10:34:49;;;;;;;;;2.00;2.00;;;;;;;;5068414;28;10328;-79
2023/12/05 10:37:21;;;;;;;;;2.00;2.00;;;;;;;;5066931;28;10258;-76
2023/12/05 10:39:49;;;;;;;;;3.00;2.00;;;;;;;;5067710;28;10305;-75
2023/12/05 10:42:17;;;;;;;;;2.00;2.00;;;;;;;;5067347;28;10408;-75
2023/12/05 10:44:44;;;;;;;;;1.00;1.00;;;;;;;;5068242;28;11208;-73
2023/12/05 10:47:13;;;;;;;;;2.50;2.00;;;;;;;;5067632;28;10284;-76
2023/12/05 10:49:42;;;;;;;;;2.25;2.25;;;;;;;;5068235;28;10262;-76
2023/12/05 10:52:09;;;;;;;;;2.75;2.75;;;;;;;;5069780;28;10711;-80
2023/12/05 10:54:39;;;;;;;;;1.00;1.00;;;;;;;;5069728;28;10299;-81
2023/12/05 10:57:09;;;;;;;;;2.50;2.50;;;;;;;;5070974;28;10307;-80
2023/12/05 10:59:37;;;;;;;;;1.00;1.00;;;;;;;;5072695;28;10248;-80
2023/12/05 11:02:11;;;;;;;;;2.00;2.00;;;;;;;;5083279;28;10027;-78
2023/12/05 11:04:42;;;;;;;;;1.50;1.50;;;;;;;;5086137;28;10263;-75
2023/12/05 11:07:11;;;;;;;;;4.25;4.00;;;;;;;;5084621;28;10224;-76
2023/12/05 11:09:44;;;;;;;;;1.25;1.25;;;;;;;;5075925;28;10950;-76
2023/12/05 11:12:11;;;;;;;;;4.00;4.00;;;;;;;;5067074;28;10097;-72
2023/12/05 11:14:42;;;;;;;;;3.00;3.00;;;;;;;;5067125;28;10226;-74
2023/12/05 11:17:13;;;;;;;;;3.00;3.00;;;;;;;;5067972;28;10232;-73
2023/12/05 11:19:53;;;;;;;;;2.00;2.00;;;;;;;;5069200;28;10247;-81
2023/12/05 11:22:26;;;;;;;;;2.00;2.00;;;;;;;;5069368;28;10315;-74
2023/12/05 11:25:20;;;;;;;;;2.00;2.00;;;;;;;;5074137;28;10355;-72
2023/12/05 11:27:58;;;;;;;;;1.50;1.50;;;;;;;;5065311;28;10262;-74
2023/12/05 11:30:52;;;;;;;;;3.00;3.00;;;;;;;;5066456;28;10107;-74
2023/12/05 11:33:32;;;;;;;;;1.00;1.00;;;;;;;;5068077;28;10392;-75
2023/12/05 11:36:08;;;;;;;;;1.00;1.00;;;;;;;;5069968;28;10964;-76
2023/12/05 11:38:36;;;;;;;;;2.75;2.75;;;;;;;;5069898;28;10411;-74
2023/12/05 11:41:14;;;;;;;;;1.00;1.00;;;;;;;;5069229;28;10240;-78
2023/12/05 11:43:42;;;;;;;;;0.75;0.75;;;;;;;;5068919;28;10095;-76
2023/12/05 11:46:10;;;;;;;;;1.00;1.00;;;;;;;;5069749;28;10848;-75
2023/12/05 11:48:37;;;;;;;;;1.75;1.75;;;;;;;;5070071;28;10173;-75
2023/12/05 11:51:04;;;;;;;;;1.00;1.00;;;;;;;;5069319;28;10306;-76
2023/12/05 11:53:31;;;;;;;;;1.00;1.00;;;;;;;;5069732;28;10898;-79
2023/12/05 11:55:59;;;;;;;;;1.00;1.00;;;;;;;;5069368;28;10272;-76
2023/12/05 11:58:29;;;;;;;;;1.75;1.75;;;;;;;;5062093;28;10069;-76
2023/12/05 12:01:07;;;;;;;;;1.00;1.00;;;;;;;;5069141;28;10154;-75
2023/12/05 12:03:45;;;;;;;;;1.50;1.50;;;;;;;;5070007;28;10153;-76
2023/12/05 12:06:13;;;;;;;;;1.00;1.00;;;;;;;;5068346;28;10502;-76
2023/12/05 12:08:40;;;;;;;;;1.00;1.00;;;;;;;;5069438;28;10037;-76
2023/12/05 12:11:07;;;;;;;;;1.00;1.00;;;;;;;;5070290;28;10090;-78
2023/12/05 12:13:36;;;;;;;;;0.75;0.75;;;;;;;;5070076;28;9924;-75
2023/12/05 12:16:03;;;;;;;;;0.75;0.75;;;;;;;;5069143;28;9884;-78
2023/12/05 12:18:31;;;;;;;;;0.00;0.00;;;;;;;;5069206;28;9934;-76
2023/12/05 12:20:59;;;;;;;;;1.50;1.50;;;;;;;;5069927;28;10113;-77
2023/12/05 12:23:26;;;;;;;;;2.75;1.50;;;;;;;;5068658;28;9997;-76
2023/12/05 12:25:57;;;;;;;;;2.00;2.00;;;;;;;;5069131;28;10025;-75
2023/12/05 12:28:28;;;;;;;;;2.00;2.00;;;;;;;;5070064;28;10015;-77
2023/12/05 12:30:59;;;;;;;;;3.00;1.75;;;;;;;;5068321;28;10015;-74
2023/12/05 12:33:37;;;;;;;;;0.00;0.00;;;;;;;;5070152;28;11201;-79
2023/12/05 12:36:05;;;;;;;;;0.25;0.25;;;;;;;;5063916;28;9920;-81
2023/12/05 12:38:34;;;;;;;;;0.00;0.00;;;;;;;;5067595;28;10003;-77
2023/12/05 12:41:02;;;;;;;;;1.00;1.00;;;;;;;;5069391;28;9936;-76
2023/12/05 12:43:29;;;;;;;;;0.75;0.75;;;;;;;;5073328;28;9917;-77
2023/12/05 12:45:59;;;;;;;;;0.75;0.75;;;;;;;;5073237;28;9937;-76
2023/12/05 12:48:26;;;;;;;;;1.00;1.00;;;;;;;;5072713;28;9854;-78
2023/12/05 12:50:54;;;;;;;;;0.00;0.00;;;;;;;;5073779;28;10087;-79
2023/12/05 12:53:21;;;;;;;;;1.00;1.00;;;;;;;;5069707;28;9989;-77
2023/12/05 12:55:49;;;;;;;;;0.75;0.75;;;;;;;;5063199;28;10055;-76
2023/12/05 12:58:16;;;;;;;;;1.00;1.00;;;;;;;;5069725;28;9918;-75
2023/12/05 13:00:43;;;;;;;;;0.00;0.00;;;;;;;;5068841;28;9953;-74
2023/12/05 13:03:12;;;;;;;;;0.75;0.75;;;;;;;;5069558;28;9900;-75
2023/12/05 13:05:40;;;;;;;;;0.00;0.00;;;;;;;;5070467;28;10069;-74
2023/12/05 13:08:08;;;;;;;;;1.00;1.00;;;;;;;;5070069;28;9991;-78
2023/12/05 13:10:37;;;;;;;;;0.75;0.75;;;;;;;;5068546;28;10149;-76
2023/12/05 13:13:05;;;;;;;;;1.00;1.00;;;;;;;;5068065;28;10084;-75
2023/12/05 13:15:33;;;;;;;;;0.00;0.00;;;;;;;;5068322;28;10074;-74
2023/12/05 13:18:02;;;;;;;;;1.00;1.00;;;;;;;;5068512;28;10088;-75
2023/12/05 13:20:31;;;;;;;;;1.00;1.00;;;;;;;;5068169;28;10148;-75
2023/12/05 13:23:00;;;;;;;;;1.00;1.00;;;;;;;;5067044;28;10858;-74
2023/12/05 13:25:27;;;;;;;;;2.75;2.75;;;;;;;;5067338;28;10214;-74
2023/12/05 13:27:58;;;;;;;;;1.25;1.25;;;;;;;;5068309;28;10309;-74
2023/12/05 13:30:25;;;;;;;;;4.00;2.75;;;;;;;;5067772;28;10371;-74
2023/12/05 13:32:53;;;;;;;;;2.00;2.00;;;;;;;;5077657;28;10295;-75
2023/12/05 13:35:20;;;;;;;;;2.00;2.00;;;;;;;;5070335;28;10413;-77
2023/12/05 13:37:49;;;;;;;;;2.00;2.00;;;;;;;;5068236;28;11194;-77
2023/12/05 13:40:16;;;;;;;;;2.75;2.75;;;;;;;;5067133;28;10403;-75
2023/12/05 13:42:44;;;;;;;;;2.50;2.50;;;;;;;;5066423;28;10661;-77
2023/12/05 13:45:12;;;;;;;;;1.75;1.75;;;;;;;;5067516;28;10458;-74
2023/12/05 13:47:39;;;;;;;;;3.00;3.00;;;;;;;;5068004;28;10438;-75
2023/12/05 13:50:06;;;;;;;;;3.50;3.00;;;;;;;;5067892;28;10471;-79
2023/12/05 13:52:34;;;;;;;;;5.25;5.00;;;;;;;;5067602;28;10595;-76
2023/12/05 13:55:03;;;;;;;;;3.25;3.25;;;;;;;;5067265;28;10536;-77
2023/12/05 13:57:31;;;;;;;;;2.50;2.50;;;;;;;;5067965;28;11486;-77
2023/12/05 13:59:59;;;;;;;;;4.00;4.00;;;;;;;;5066674;28;10710;-77
2023/12/05 14:02:26;;;;;;;;;3.50;3.00;;;;;;;;5067698;28;10493;-74
2023/12/05 14:04:55;;;;;;;;;4.00;2.00;;;;;;;;5067992;28;10603;-79
2023/12/05 14:07:25;;;;;;;;;3.00;3.00;;;;;;;;5067516;28;10620;-76
2023/12/05 14:09:53;;;;;;;;;4.00;4.00;;;;;;;;5067958;28;10607;-76
2023/12/05 14:12:22;;;;;;;;;3.00;3.00;;;;;;;;5067469;28;10553;-75
2023/12/05 14:14:49;;;;;;;;;2.25;2.25;;;;;;;;5056897;28;10710;-78
2023/12/05 14:17:17;;;;;;;;;4.00;4.00;;;;;;;;5066666;28;10627;-78
2023/12/05 14:19:44;;;;;;;;;3.50;3.50;;;;;;;;5067792;28;10650;-76
2023/12/05 14:22:12;;;;;;;;;3.00;3.00;;;;;;;;5065964;28;10550;-77
2023/12/05 14:24:39;;;;;;;;;3.00;3.00;;;;;;;;5067937;28;10664;-77
2023/12/05 14:27:06;;;;;;;;;3.00;3.00;;;;;;;;5067990;28;10488;-78
2023/12/05 14:29:35;;;;;;;;;5.50;4.00;;;;;;;;5069087;28;10607;-80
2023/12/05 14:32:02;;;;;;;;;5.00;3.00;;;;;;;;5068353;28;10577;-76
2023/12/05 14:34:29;;;;;;;;;3.00;3.00;;;;;;;;5070774;28;10524;-79
2023/12/05 14:36:56;;;;;;;;;2.00;2.00;;;;;;;;5071045;28;10511;-77
2023/12/05 14:39:26;;;;;;;;;2.00;2.00;;;;;;;;5067223;28;10314;-79
2023/12/05 14:41:54;;;;;;;;;2.25;2.25;;;;;;;;5071797;28;10443;-76
2023/12/05 14:44:25;;;;;;;;;2.00;2.00;;;;;;;;5063583;28;10334;-77
2023/12/05 14:46:55;;;;;;;;;4.00;2.25;;;;;;;;5069319;28;10455;-75
2023/12/05 14:49:22;;;;;;;;;0.50;0.50;;;;;;;;5066633;28;10446;-75
2023/12/05 14:51:49;;;;;;;;;1.00;1.00;;;;;;;;5068094;28;10374;-74
2023/12/05 14:54:16;;;;;;;;;1.50;1.50;;;;;;;;5062486;28;11162;-74